Terminal Aerodrome Forecast
Issued by NWS Shreveport, LA

Home | Current Version | Previous Version | Text Only | Print | Product List | Glossary On
Versions: 1 2 3 4 5 6 7 8 9 10 11 12 13 14 15 16
019
FTUS44 KSHV 060546
TAFELD
TAF
KELD 060546Z 0606/0706 00000KT P6SM SKC
     FM060800 VRB03KT P6SM BKN120
     FM061800 06005KT P6SM BKN100
     FM062100 01003KT P6SM SKC=

USA.gov is the U.S. government's official web portal to all federal, state and local government web resources and services.